sensor_id;sensor_type;location;lat;lon;timestamp;temperature;humidity
38241;DHT22;24037;49.536;8.500;2024-03-02T00:00:10;3.60;99.90
38241;DHT22;24037;49.536;8.500;2024-03-02T00:02:45;3.60;99.90
38241;DHT22;24037;49.536;8.500;2024-03-02T00:05:13;3.60;99.90
38241;DHT22;24037;49.536;8.500;2024-03-02T00:07:41;3.70;1.00
38241;DHT22;24037;49.536;8.500;2024-03-02T00:10:09;3.80;1.00
38241;DHT22;24037;49.536;8.500;2024-03-02T00:12:39;3.70;1.00
38241;DHT22;24037;49.536;8.500;2024-03-02T00:16:07;3.70;1.00
38241;DHT22;24037;49.536;8.500;2024-03-02T00:18:40;3.80;1.00
38241;DHT22;24037;49.536;8.500;2024-03-02T00:21:06;3.90;1.00
38241;DHT22;24037;49.536;8.500;2024-03-02T00:23:35;3.90;1.00
38241;DHT22;24037;49.536;8.500;2024-03-02T00:26:02;3.90;1.00
38241;DHT22;24037;49.536;8.500;2024-03-02T00:28:33;3.90;1.00
38241;DHT22;24037;49.536;8.500;2024-03-02T00:31:10;3.90;1.00
38241;DHT22;24037;49.536;8.500;2024-03-02T00:33:44;4.00;10.70
38241;DHT22;24037;49.536;8.500;2024-03-02T00:36:13;4.00;37.10
38241;DHT22;24037;49.536;8.500;2024-03-02T00:38:50;4.00;17.40
38241;DHT22;24037;49.536;8.500;2024-03-02T00:41:36;3.90;1.00
38241;DHT22;24037;49.536;8.500;2024-03-02T00:44:03;3.90;1.00
38241;DHT22;24037;49.536;8.500;2024-03-02T00:46:35;3.80;1.00
38241;DHT22;24037;49.536;8.500;2024-03-02T00:49:03;3.80;1.00
38241;DHT22;24037;49.536;8.500;2024-03-02T00:51:31;3.80;1.00
38241;DHT22;24037;49.536;8.500;2024-03-02T00:54:04;3.70;1.00
38241;DHT22;24037;49.536;8.500;2024-03-02T00:56:31;3.60;1.00
38241;DHT22;24037;49.536;8.500;2024-03-02T00:58:58;3.50;1.00
38241;DHT22;24037;49.536;8.500;2024-03-02T01:01:24;3.50;1.00
38241;DHT22;24037;49.536;8.500;2024-03-02T01:03:50;3.40;1.00
38241;DHT22;24037;49.536;8.500;2024-03-02T01:06:16;3.30;1.00
38241;DHT22;24037;49.536;8.500;2024-03-02T01:08:43;3.30;1.00
38241;DHT22;24037;49.536;8.500;2024-03-02T01:11:09;3.30;1.00
38241;DHT22;24037;49.536;8.500;2024-03-02T01:13:35;3.30;1.00
38241;DHT22;24037;49.536;8.500;2024-03-02T01:16:02;3.30;1.00
38241;DHT22;24037;49.536;8.500;2024-03-02T01:18:28;3.40;3.20
38241;DHT22;24037;49.536;8.500;2024-03-02T01:20:54;3.40;33.90
38241;DHT22;24037;49.536;8.500;2024-03-02T01:23:24;3.40;98.80
38241;DHT22;24037;49.536;8.500;2024-03-02T01:25:51;3.50;99.90
38241;DHT22;24037;49.536;8.500;2024-03-02T01:28:19;3.50;99.90
38241;DHT22;24037;49.536;8.500;2024-03-02T01:30:46;3.50;99.90
38241;DHT22;24037;49.536;8.500;2024-03-02T01:33:13;3.50;99.90
38241;DHT22;24037;49.536;8.500;2024-03-02T01:35:39;3.70;99.90
38241;DHT22;24037;49.536;8.500;2024-03-02T01:38:06;3.70;99.90
38241;DHT22;24037;49.536;8.500;2024-03-02T01:40:34;3.60;99.90
38241;DHT22;24037;49.536;8.500;2024-03-02T01:43:00;3.60;99.90
38241;DHT22;24037;49.536;8.500;2024-03-02T01:45:26;3.60;99.90
38241;DHT22;24037;49.536;8.500;2024-03-02T01:47:53;3.50;99.90
38241;DHT22;24037;49.536;8.500;2024-03-02T01:50:31;3.40;88.70
38241;DHT22;24037;49.536;8.500;2024-03-02T01:52:57;3.40;67.60
38241;DHT22;24037;49.536;8.500;2024-03-02T01:55:24;3.50;99.90
38241;DHT22;24037;49.536;8.500;2024-03-02T01:57:52;3.70;99.90
38241;DHT22;24037;49.536;8.500;2024-03-02T02:00:21;3.50;99.90
38241;DHT22;24037;49.536;8.500;2024-03-02T02:02:48;3.50;99.90
38241;DHT22;24037;49.536;8.500;2024-03-02T02:05:15;3.40;99.90
38241;DHT22;24037;49.536;8.500;2024-03-02T02:07:41;3.40;99.90
38241;DHT22;24037;49.536;8.500;2024-03-02T02:10:12;3.30;66.40
38241;DHT22;24037;49.536;8.500;2024-03-02T02:12:38;3.20;17.00
38241;DHT22;24037;49.536;8.500;2024-03-02T02:15:28;3.10;1.00
38241;DHT22;24037;49.536;8.500;2024-03-02T02:17:55;3.10;1.00
38241;DHT22;24037;49.536;8.500;2024-03-02T02:20:21;2.90;1.00
38241;DHT22;24037;49.536;8.500;2024-03-02T02:23:13;3.00;1.00
38241;DHT22;24037;49.536;8.500;2024-03-02T02:25:40;2.90;15.90
38241;DHT22;24037;49.536;8.500;2024-03-02T02:28:06;2.80;15.80
38241;DHT22;24037;49.536;8.500;2024-03-02T02:30:32;2.80;15.80
38241;DHT22;24037;49.536;8.500;2024-03-02T02:32:58;2.80;41.90
38241;DHT22;24037;49.536;8.500;2024-03-02T02:35:25;2.80;82.60
38241;DHT22;24037;49.536;8.500;2024-03-02T02:37:52;2.80;99.90
38241;DHT22;24037;49.536;8.500;2024-03-02T02:40:19;2.80;99.90
38241;DHT22;24037;49.536;8.500;2024-03-02T02:42:46;2.90;99.90
38241;DHT22;24037;49.536;8.500;2024-03-02T02:45:12;2.90;99.90
38241;DHT22;24037;49.536;8.500;2024-03-02T02:47:41;2.90;99.90
38241;DHT22;24037;49.536;8.500;2024-03-02T02:50:08;2.90;99.90
38241;DHT22;24037;49.536;8.500;2024-03-02T02:52:35;2.80;99.90
38241;DHT22;24037;49.536;8.500;2024-03-02T02:55:10;2.80;99.90
38241;DHT22;24037;49.536;8.500;2024-03-02T02:57:37;2.80;99.90
38241;DHT22;24037;49.536;8.500;2024-03-02T03:00:12;2.80;99.90
38241;DHT22;24037;49.536;8.500;2024-03-02T03:02:47;2.80;99.90
38241;DHT22;24037;49.536;8.500;2024-03-02T03:05:14;2.80;99.90
38241;DHT22;24037;49.536;8.500;2024-03-02T03:07:41;2.80;99.90
38241;DHT22;24037;49.536;8.500;2024-03-02T03:10:08;2.80;99.90
38241;DHT22;24037;49.536;8.500;2024-03-02T03:12:35;2.80;99.90
38241;DHT22;24037;49.536;8.500;2024-03-02T03:15:02;2.80;99.90
38241;DHT22;24037;49.536;8.500;2024-03-02T03:17:30;2.80;99.90
38241;DHT22;24037;49.536;8.500;2024-03-02T03:19:56;2.80;99.90
38241;DHT22;24037;49.536;8.500;2024-03-02T03:22:22;2.90;99.90
38241;DHT22;24037;49.536;8.500;2024-03-02T03:24:49;2.90;99.90
38241;DHT22;24037;49.536;8.500;2024-03-02T03:27:15;2.90;99.90
38241;DHT22;24037;49.536;8.500;2024-03-02T03:29:41;2.80;99.90
38241;DHT22;24037;49.536;8.500;2024-03-02T03:32:07;2.90;99.90
38241;DHT22;24037;49.536;8.500;2024-03-02T03:34:34;3.00;99.90
38241;DHT22;24037;49.536;8.500;2024-03-02T03:37:00;3.10;99.90
38241;DHT22;24037;49.536;8.500;2024-03-02T03:39:26;3.00;99.90
38241;DHT22;24037;49.536;8.500;2024-03-02T03:41:52;3.00;99.90
38241;DHT22;24037;49.536;8.500;2024-03-02T03:44:19;2.90;99.90
38241;DHT22;24037;49.536;8.500;2024-03-02T03:46:45;2.90;99.90
38241;DHT22;24037;49.536;8.500;2024-03-02T03:49:11;2.80;99.90
38241;DHT22;24037;49.536;8.500;2024-03-02T03:51:37;2.80;99.90
38241;DHT22;24037;49.536;8.500;2024-03-02T03:54:04;2.80;99.90
38241;DHT22;24037;49.536;8.500;2024-03-02T03:56:30;2.70;99.90
38241;DHT22;24037;49.536;8.500;2024-03-02T03:58:56;2.70;99.90
38241;DHT22;24037;49.536;8.500;2024-03-02T04:01:22;2.70;99.90
38241;DHT22;24037;49.536;8.500;2024-03-02T04:03:49;2.80;99.90
38241;DHT22;24037;49.536;8.500;2024-03-02T04:06:15;3.00;99.90
38241;DHT22;24037;49.536;8.500;2024-03-02T04:08:43;2.90;99.90
38241;DHT22;24037;49.536;8.500;2024-03-02T04:11:09;2.90;99.90
38241;DHT22;24037;49.536;8.500;2024-03-02T04:13:35;2.90;99.90
38241;DHT22;24037;49.536;8.500;2024-03-02T04:16:01;2.80;99.90
38241;DHT22;24037;49.536;8.500;2024-03-02T04:18:29;2.80;99.90
38241;DHT22;24037;49.536;8.500;2024-03-02T04:20:56;2.80;99.90
38241;DHT22;24037;49.536;8.500;2024-03-02T04:23:24;2.70;99.90
38241;DHT22;24037;49.536;8.500;2024-03-02T04:25:50;2.70;99.90
38241;DHT22;24037;49.536;8.500;2024-03-02T04:28:16;2.70;99.90
38241;DHT22;24037;49.536;8.500;2024-03-02T04:30:42;2.60;99.90
38241;DHT22;24037;49.536;8.500;2024-03-02T04:33:08;2.60;99.90
38241;DHT22;24037;49.536;8.500;2024-03-02T04:35:36;2.50;99.90
38241;DHT22;24037;49.536;8.500;2024-03-02T04:38:03;2.60;99.90
38241;DHT22;24037;49.536;8.500;2024-03-02T04:40:29;2.50;99.90
38241;DHT22;24037;49.536;8.500;2024-03-02T04:42:55;2.50;99.90
38241;DHT22;24037;49.536;8.500;2024-03-02T04:45:21;2.40;99.90
38241;DHT22;24037;49.536;8.500;2024-03-02T04:47:47;2.40;99.90
38241;DHT22;24037;49.536;8.500;2024-03-02T04:50:14;2.40;99.90
38241;DHT22;24037;49.536;8.500;2024-03-02T04:52:40;2.30;99.90
38241;DHT22;24037;49.536;8.500;2024-03-02T04:55:06;2.30;99.90
38241;DHT22;24037;49.536;8.500;2024-03-02T04:57:35;2.30;99.90
38241;DHT22;24037;49.536;8.500;2024-03-02T05:00:02;2.20;99.90
38241;DHT22;24037;49.536;8.500;2024-03-02T05:02:32;2.20;99.90
38241;DHT22;24037;49.536;8.500;2024-03-02T05:04:59;2.20;99.90
38241;DHT22;24037;49.536;8.500;2024-03-02T05:07:25;2.30;99.90
38241;DHT22;24037;49.536;8.500;2024-03-02T05:09:51;2.40;99.90
38241;DHT22;24037;49.536;8.500;2024-03-02T05:12:17;2.60;99.90
38241;DHT22;24037;49.536;8.500;2024-03-02T05:15:02;2.80;99.90
38241;DHT22;24037;49.536;8.500;2024-03-02T05:17:29;2.90;99.90
38241;DHT22;24037;49.536;8.500;2024-03-02T05:19:55;3.10;99.90
38241;DHT22;24037;49.536;8.500;2024-03-02T05:22:21;3.20;99.90
38241;DHT22;24037;49.536;8.500;2024-03-02T05:24:47;3.30;99.90
38241;DHT22;24037;49.536;8.500;2024-03-02T05:27:14;3.40;99.90
38241;DHT22;24037;49.536;8.500;2024-03-02T05:29:40;3.30;99.90
38241;DHT22;24037;49.536;8.500;2024-03-02T05:32:06;3.40;99.90
38241;DHT22;24037;49.536;8.500;2024-03-02T05:34:33;3.40;99.90
38241;DHT22;24037;49.536;8.500;2024-03-02T05:37:01;3.40;99.90
38241;DHT22;24037;49.536;8.500;2024-03-02T05:39:27;3.30;99.90
38241;DHT22;24037;49.536;8.500;2024-03-02T05:41:54;3.30;99.90
38241;DHT22;24037;49.536;8.500;2024-03-02T05:44:20;3.20;99.90
38241;DHT22;24037;49.536;8.500;2024-03-02T05:46:46;3.20;99.90
38241;DHT22;24037;49.536;8.500;2024-03-02T05:49:12;3.20;99.90
38241;DHT22;24037;49.536;8.500;2024-03-02T05:51:40;3.30;99.90
38241;DHT22;24037;49.536;8.500;2024-03-02T05:54:06;3.30;99.90
38241;DHT22;24037;49.536;8.500;2024-03-02T05:56:32;3.40;99.90
38241;DHT22;24037;49.536;8.500;2024-03-02T05:58:58;3.30;99.90
38241;DHT22;24037;49.536;8.500;2024-03-02T06:01:42;3.20;99.90
38241;DHT22;24037;49.536;8.500;2024-03-02T06:04:12;3.10;99.90
38241;DHT22;24037;49.536;8.500;2024-03-02T06:06:41;2.90;99.90
38241;DHT22;24037;49.536;8.500;2024-03-02T06:09:08;2.80;99.90
38241;DHT22;24037;49.536;8.500;2024-03-02T06:11:38;2.70;99.90
38241;DHT22;24037;49.536;8.500;2024-03-02T06:14:06;2.60;99.90
38241;DHT22;24037;49.536;8.500;2024-03-02T06:16:32;2.60;99.90
38241;DHT22;24037;49.536;8.500;2024-03-02T06:18:59;2.60;99.90
38241;DHT22;24037;49.536;8.500;2024-03-02T06:21:26;2.60;99.90
38241;DHT22;24037;49.536;8.500;2024-03-02T06:23:52;2.60;99.90
38241;DHT22;24037;49.536;8.500;2024-03-02T06:26:19;2.70;99.90
38241;DHT22;24037;49.536;8.500;2024-03-02T06:28:46;2.60;99.90
38241;DHT22;24037;49.536;8.500;2024-03-02T06:31:12;2.60;99.90
38241;DHT22;24037;49.536;8.500;2024-03-02T06:33:38;2.50;99.90
38241;DHT22;24037;49.536;8.500;2024-03-02T06:36:06;2.60;99.90
38241;DHT22;24037;49.536;8.500;2024-03-02T06:38:35;2.50;99.90
38241;DHT22;24037;49.536;8.500;2024-03-02T06:41:01;2.50;99.90
38241;DHT22;24037;49.536;8.500;2024-03-02T06:43:28;2.40;99.90
38241;DHT22;24037;49.536;8.500;2024-03-02T06:45:54;2.50;99.90
38241;DHT22;24037;49.536;8.500;2024-03-02T06:48:20;2.40;99.90
38241;DHT22;24037;49.536;8.500;2024-03-02T06:50:47;2.40;99.90
38241;DHT22;24037;49.536;8.500;2024-03-02T06:53:16;2.50;99.90
38241;DHT22;24037;49.536;8.500;2024-03-02T06:55:44;2.50;99.90
38241;DHT22;24037;49.536;8.500;2024-03-02T06:58:13;2.50;99.90
38241;DHT22;24037;49.536;8.500;2024-03-02T07:00:42;2.60;99.90
38241;DHT22;24037;49.536;8.500;2024-03-02T07:03:08;2.60;99.90
38241;DHT22;24037;49.536;8.500;2024-03-02T07:05:34;2.70;99.90
38241;DHT22;24037;49.536;8.500;2024-03-02T07:08:01;2.70;99.90
38241;DHT22;24037;49.536;8.500;2024-03-02T07:10:28;2.80;99.90
38241;DHT22;24037;49.536;8.500;2024-03-02T07:12:54;2.90;99.90
38241;DHT22;24037;49.536;8.500;2024-03-02T07:15:20;3.10;99.90
38241;DHT22;24037;49.536;8.500;2024-03-02T07:17:52;3.20;99.90
38241;DHT22;24037;49.536;8.500;2024-03-02T07:20:18;3.40;99.90
38241;DHT22;24037;49.536;8.500;2024-03-02T07:22:45;3.60;99.90
38241;DHT22;24037;49.536;8.500;2024-03-02T07:25:11;3.90;99.90
38241;DHT22;24037;49.536;8.500;2024-03-02T07:27:38;4.10;99.90
38241;DHT22;24037;49.536;8.500;2024-03-02T07:30:05;4.30;44.50
38241;DHT22;24037;49.536;8.500;2024-03-02T07:32:32;4.60;1.00
38241;DHT22;24037;49.536;8.500;2024-03-02T07:34:58;4.90;1.00
38241;DHT22;24037;49.536;8.500;2024-03-02T07:37:24;5.20;99.90
38241;DHT22;24037;49.536;8.500;2024-03-02T07:39:50;5.70;99.90
38241;DHT22;24037;49.536;8.500;2024-03-02T07:42:17;6.20;99.90
38241;DHT22;24037;49.536;8.500;2024-03-02T07:44:44;6.60;30.80
38241;DHT22;24037;49.536;8.500;2024-03-02T07:47:11;7.10;1.00
38241;DHT22;24037;49.536;8.500;2024-03-02T07:49:38;7.60;1.00
38241;DHT22;24037;49.536;8.500;2024-03-02T07:52:04;8.00;99.90
38241;DHT22;24037;49.536;8.500;2024-03-02T07:54:31;8.10;99.90
38241;DHT22;24037;49.536;8.500;2024-03-02T07:56:57;8.20;99.90
38241;DHT22;24037;49.536;8.500;2024-03-02T07:59:24;8.50;99.90
38241;DHT22;24037;49.536;8.500;2024-03-02T08:01:50;8.70;99.90
38241;DHT22;24037;49.536;8.500;2024-03-02T08:04:17;8.90;65.40
38241;DHT22;24037;49.536;8.500;2024-03-02T08:06:43;9.00;14.90
38241;DHT22;24037;49.536;8.500;2024-03-02T08:09:11;9.10;1.00
38241;DHT22;24037;49.536;8.500;2024-03-02T08:11:37;9.20;1.00
38241;DHT22;24037;49.536;8.500;2024-03-02T08:14:03;9.50;1.00
38241;DHT22;24037;49.536;8.500;2024-03-02T08:16:29;9.50;1.00
38241;DHT22;24037;49.536;8.500;2024-03-02T08:18:56;9.90;1.00
38241;DHT22;24037;49.536;8.500;2024-03-02T08:21:25;10.20;99.90
38241;DHT22;24037;49.536;8.500;2024-03-02T08:23:52;10.50;99.90
38241;DHT22;24037;49.536;8.500;2024-03-02T08:26:18;10.50;99.90
38241;DHT22;24037;49.536;8.500;2024-03-02T08:28:44;10.50;99.90
38241;DHT22;24037;49.536;8.500;2024-03-02T08:31:10;10.50;99.90
38241;DHT22;24037;49.536;8.500;2024-03-02T08:33:36;10.40;99.90
38241;DHT22;24037;49.536;8.500;2024-03-02T08:36:03;10.10;99.90
38241;DHT22;24037;49.536;8.500;2024-03-02T08:38:29;10.20;99.90
38241;DHT22;24037;49.536;8.500;2024-03-02T08:40:56;10.30;99.90
38241;DHT22;24037;49.536;8.500;2024-03-02T08:43:23;10.30;99.90
38241;DHT22;24037;49.536;8.500;2024-03-02T08:45:49;10.30;71.80
38241;DHT22;24037;49.536;8.500;2024-03-02T08:48:17;10.40;99.90
38241;DHT22;24037;49.536;8.500;2024-03-02T08:50:44;10.50;58.80
38241;DHT22;24037;49.536;8.500;2024-03-02T08:53:10;10.40;17.00
38241;DHT22;24037;49.536;8.500;2024-03-02T08:55:36;10.40;34.50
38241;DHT22;24037;49.536;8.500;2024-03-02T08:58:02;10.50;53.10
38241;DHT22;24037;49.536;8.500;2024-03-02T09:00:29;10.40;1.00
38241;DHT22;24037;49.536;8.500;2024-03-02T09:02:55;10.50;1.00
38241;DHT22;24037;49.536;8.500;2024-03-02T09:05:21;10.60;1.00
38241;DHT22;24037;49.536;8.500;2024-03-02T09:07:47;10.70;1.00
38241;DHT22;24037;49.536;8.500;2024-03-02T09:10:14;10.70;1.00
38241;DHT22;24037;49.536;8.500;2024-03-02T09:12:40;10.60;1.00
38241;DHT22;24037;49.536;8.500;2024-03-02T09:15:07;10.80;1.00
38241;DHT22;24037;49.536;8.500;2024-03-02T09:17:33;10.80;1.00
38241;DHT22;24037;49.536;8.500;2024-03-02T09:20:00;11.00;1.00
38241;DHT22;24037;49.536;8.500;2024-03-02T09:22:26;11.00;1.00
38241;DHT22;24037;49.536;8.500;2024-03-02T09:24:52;11.10;1.00
38241;DHT22;24037;49.536;8.500;2024-03-02T09:27:18;11.20;1.00
38241;DHT22;24037;49.536;8.500;2024-03-02T09:29:44;11.30;1.00
38241;DHT22;24037;49.536;8.500;2024-03-02T09:32:13;11.80;1.00
38241;DHT22;24037;49.536;8.500;2024-03-02T09:34:40;12.10;99.90
38241;DHT22;24037;49.536;8.500;2024-03-02T09:37:06;12.30;99.90
38241;DHT22;24037;49.536;8.500;2024-03-02T09:39:33;12.50;99.90
38241;DHT22;24037;49.536;8.500;2024-03-02T09:41:59;12.20;99.90
38241;DHT22;24037;49.536;8.500;2024-03-02T09:44:26;12.20;99.90
38241;DHT22;24037;49.536;8.500;2024-03-02T09:46:52;12.30;99.90
38241;DHT22;24037;49.536;8.500;2024-03-02T09:49:18;12.60;99.90
38241;DHT22;24037;49.536;8.500;2024-03-02T09:51:47;12.80;99.90
38241;DHT22;24037;49.536;8.500;2024-03-02T09:54:14;12.80;99.90
38241;DHT22;24037;49.536;8.500;2024-03-02T09:56:41;12.90;99.90
38241;DHT22;24037;49.536;8.500;2024-03-02T09:59:07;12.90;99.90
38241;DHT22;24037;49.536;8.500;2024-03-02T10:01:33;12.60;99.90
38241;DHT22;24037;49.536;8.500;2024-03-02T10:04:00;12.50;99.90
38241;DHT22;24037;49.536;8.500;2024-03-02T10:06:27;12.80;99.90
38241;DHT22;24037;49.536;8.500;2024-03-02T10:08:55;12.80;99.90
38241;DHT22;24037;49.536;8.500;2024-03-02T10:11:35;12.70;99.90
38241;DHT22;24037;49.536;8.500;2024-03-02T10:14:06;12.70;99.90
38241;DHT22;24037;49.536;8.500;2024-03-02T10:16:38;12.80;99.90
38241;DHT22;24037;49.536;8.500;2024-03-02T10:19:20;12.80;99.90
38241;DHT22;24037;49.536;8.500;2024-03-02T10:21:50;13.00;99.90
38241;DHT22;24037;49.536;8.500;2024-03-02T10:24:17;13.00;99.90
38241;DHT22;24037;49.536;8.500;2024-03-02T10:26:44;13.20;99.90
38241;DHT22;24037;49.536;8.500;2024-03-02T10:29:11;13.10;99.90
38241;DHT22;24037;49.536;8.500;2024-03-02T10:31:42;13.10;99.90
38241;DHT22;24037;49.536;8.500;2024-03-02T10:34:10;13.20;99.90
38241;DHT22;24037;49.536;8.500;2024-03-02T10:36:37;13.20;99.90
38241;DHT22;24037;49.536;8.500;2024-03-02T10:39:07;13.30;99.90
38241;DHT22;24037;49.536;8.500;2024-03-02T10:41:35;13.40;99.90
38241;DHT22;24037;49.536;8.500;2024-03-02T10:44:03;13.50;99.90
38241;DHT22;24037;49.536;8.500;2024-03-02T10:46:31;13.60;99.90
38241;DHT22;24037;49.536;8.500;2024-03-02T10:48:59;13.60;99.90
38241;DHT22;24037;49.536;8.500;2024-03-02T10:51:26;13.70;99.90
38241;DHT22;24037;49.536;8.500;2024-03-02T10:53:53;13.70;99.90
38241;DHT22;24037;49.536;8.500;2024-03-02T10:56:28;13.70;99.90
38241;DHT22;24037;49.536;8.500;2024-03-02T11:01:48;13.70;99.90
38241;DHT22;24037;49.536;8.500;2024-03-02T11:04:16;13.80;99.90
38241;DHT22;24037;49.536;8.500;2024-03-02T11:06:49;14.00;99.90
38241;DHT22;24037;49.536;8.500;2024-03-02T11:09:18;14.20;99.90
38241;DHT22;24037;49.536;8.500;2024-03-02T11:11:54;14.30;99.90
38241;DHT22;24037;49.536;8.500;2024-03-02T11:14:24;14.40;99.90
38241;DHT22;24037;49.536;8.500;2024-03-02T11:16:51;14.50;99.90
38241;DHT22;24037;49.536;8.500;2024-03-02T11:19:18;14.50;99.90
38241;DHT22;24037;49.536;8.500;2024-03-02T11:21:45;14.40;99.90
38241;DHT22;24037;49.536;8.500;2024-03-02T11:26:50;14.40;99.90
38241;DHT22;24037;49.536;8.500;2024-03-02T11:32:06;14.30;99.90
38241;DHT22;24037;49.536;8.500;2024-03-02T11:34:34;14.40;99.90
38241;DHT22;24037;49.536;8.500;2024-03-02T11:37:04;14.50;99.90
38241;DHT22;24037;49.536;8.500;2024-03-02T11:39:31;14.60;99.90
38241;DHT22;24037;49.536;8.500;2024-03-02T11:41:58;14.80;99.90
38241;DHT22;24037;49.536;8.500;2024-03-02T11:44:28;15.00;99.90
38241;DHT22;24037;49.536;8.500;2024-03-02T11:47:08;14.90;99.90
38241;DHT22;24037;49.536;8.500;2024-03-02T11:52:12;14.90;99.90
38241;DHT22;24037;49.536;8.500;2024-03-02T11:54:40;14.80;99.90
38241;DHT22;24037;49.536;8.500;2024-03-02T11:57:08;14.90;99.90
38241;DHT22;24037;49.536;8.500;2024-03-02T11:59:34;14.80;99.90
38241;DHT22;24037;49.536;8.500;2024-03-02T12:02:01;15.00;99.90
38241;DHT22;24037;49.536;8.500;2024-03-02T12:04:27;15.10;99.90
38241;DHT22;24037;49.536;8.500;2024-03-02T12:07:03;15.20;99.90
38241;DHT22;24037;49.536;8.500;2024-03-02T12:09:30;15.30;99.90
38241;DHT22;24037;49.536;8.500;2024-03-02T12:12:06;15.30;99.90
38241;DHT22;24037;49.536;8.500;2024-03-02T12:14:33;15.30;99.90
38241;DHT22;24037;49.536;8.500;2024-03-02T12:17:00;15.20;99.90
38241;DHT22;24037;49.536;8.500;2024-03-02T12:19:27;15.30;99.90
38241;DHT22;24037;49.536;8.500;2024-03-02T12:21:59;15.50;99.90
38241;DHT22;24037;49.536;8.500;2024-03-02T12:24:28;15.40;99.90
38241;DHT22;24037;49.536;8.500;2024-03-02T12:26:54;15.30;99.90
38241;DHT22;24037;49.536;8.500;2024-03-02T12:29:21;15.30;99.90
38241;DHT22;24037;49.536;8.500;2024-03-02T12:31:52;15.40;99.90
38241;DHT22;24037;49.536;8.500;2024-03-02T12:34:19;15.30;99.90
38241;DHT22;24037;49.536;8.500;2024-03-02T12:36:48;15.40;99.90
38241;DHT22;24037;49.536;8.500;2024-03-02T12:39:19;15.50;99.90
38241;DHT22;24037;49.536;8.500;2024-03-02T12:41:46;15.60;99.90
38241;DHT22;24037;49.536;8.500;2024-03-02T12:44:12;15.50;99.90
38241;DHT22;24037;49.536;8.500;2024-03-02T12:46:39;15.50;99.90
38241;DHT22;24037;49.536;8.500;2024-03-02T12:49:08;15.30;99.90
38241;DHT22;24037;49.536;8.500;2024-03-02T12:51:36;15.20;99.90
38241;DHT22;24037;49.536;8.500;2024-03-02T12:54:03;15.10;99.90
38241;DHT22;24037;49.536;8.500;2024-03-02T12:56:29;15.20;99.90
38241;DHT22;24037;49.536;8.500;2024-03-02T12:58:55;15.30;99.90
38241;DHT22;24037;49.536;8.500;2024-03-02T13:01:22;15.50;99.90
38241;DHT22;24037;49.536;8.500;2024-03-02T13:03:49;15.60;99.90
38241;DHT22;24037;49.536;8.500;2024-03-02T13:06:17;15.60;99.90
38241;DHT22;24037;49.536;8.500;2024-03-02T13:08:45;15.50;99.90
38241;DHT22;24037;49.536;8.500;2024-03-02T13:11:11;15.50;99.90
38241;DHT22;24037;49.536;8.500;2024-03-02T13:13:41;15.50;99.90
38241;DHT22;24037;49.536;8.500;2024-03-02T13:16:12;15.60;99.90
38241;DHT22;24037;49.536;8.500;2024-03-02T13:18:39;15.60;99.90
38241;DHT22;24037;49.536;8.500;2024-03-02T13:21:07;15.80;99.90
38241;DHT22;24037;49.536;8.500;2024-03-02T13:23:34;15.80;99.90
38241;DHT22;24037;49.536;8.500;2024-03-02T13:26:01;15.90;99.90
38241;DHT22;24037;49.536;8.500;2024-03-02T13:28:27;15.80;99.90
38241;DHT22;24037;49.536;8.500;2024-03-02T13:30:53;16.00;99.90
38241;DHT22;24037;49.536;8.500;2024-03-02T13:33:19;15.80;99.90
38241;DHT22;24037;49.536;8.500;2024-03-02T13:35:51;15.90;99.90
38241;DHT22;24037;49.536;8.500;2024-03-02T13:38:19;15.90;99.90
38241;DHT22;24037;49.536;8.500;2024-03-02T13:40:48;15.90;99.90
38241;DHT22;24037;49.536;8.500;2024-03-02T13:43:17;15.90;99.90
38241;DHT22;24037;49.536;8.500;2024-03-02T13:45:44;15.80;99.90
38241;DHT22;24037;49.536;8.500;2024-03-02T13:48:10;15.90;99.90
38241;DHT22;24037;49.536;8.500;2024-03-02T13:50:36;15.90;99.90
38241;DHT22;24037;49.536;8.500;2024-03-02T13:53:03;15.90;99.90
38241;DHT22;24037;49.536;8.500;2024-03-02T13:55:29;15.80;99.90
38241;DHT22;24037;49.536;8.500;2024-03-02T13:57:55;15.80;99.90
38241;DHT22;24037;49.536;8.500;2024-03-02T14:00:21;15.70;99.90
38241;DHT22;24037;49.536;8.500;2024-03-02T14:02:48;15.80;99.90
38241;DHT22;24037;49.536;8.500;2024-03-02T14:05:17;15.90;99.90
38241;DHT22;24037;49.536;8.500;2024-03-02T14:07:45;16.10;99.90
38241;DHT22;24037;49.536;8.500;2024-03-02T14:10:11;16.10;99.90
38241;DHT22;24037;49.536;8.500;2024-03-02T14:12:38;16.20;99.90
38241;DHT22;24037;49.536;8.500;2024-03-02T14:15:04;16.10;99.90
38241;DHT22;24037;49.536;8.500;2024-03-02T14:17:31;16.10;99.90
38241;DHT22;24037;49.536;8.500;2024-03-02T14:20:00;16.10;99.90
38241;DHT22;24037;49.536;8.500;2024-03-02T14:22:26;16.00;99.90
38241;DHT22;24037;49.536;8.500;2024-03-02T14:24:52;16.00;99.90
38241;DHT22;24037;49.536;8.500;2024-03-02T14:27:18;16.00;99.90
38241;DHT22;24037;49.536;8.500;2024-03-02T14:29:45;15.90;99.90
38241;DHT22;24037;49.536;8.500;2024-03-02T14:32:11;15.90;99.90
38241;DHT22;24037;49.536;8.500;2024-03-02T14:34:37;15.90;99.90
38241;DHT22;24037;49.536;8.500;2024-03-02T14:37:04;15.90;99.90
38241;DHT22;24037;49.536;8.500;2024-03-02T14:39:30;15.90;99.90
38241;DHT22;24037;49.536;8.500;2024-03-02T14:42:00;15.90;99.90
38241;DHT22;24037;49.536;8.500;2024-03-02T14:44:27;15.90;99.90
38241;DHT22;24037;49.536;8.500;2024-03-02T14:46:53;15.90;99.90
38241;DHT22;24037;49.536;8.500;2024-03-02T14:49:20;15.90;99.90
38241;DHT22;24037;49.536;8.500;2024-03-02T14:51:46;15.90;99.90
38241;DHT22;24037;49.536;8.500;2024-03-02T14:54:12;15.90;99.90
38241;DHT22;24037;49.536;8.500;2024-03-02T14:56:38;15.80;99.90
38241;DHT22;24037;49.536;8.500;2024-03-02T14:59:05;15.80;99.90
38241;DHT22;24037;49.536;8.500;2024-03-02T15:01:31;15.90;99.90
38241;DHT22;24037;49.536;8.500;2024-03-02T15:03:57;15.80;99.90
38241;DHT22;24037;49.536;8.500;2024-03-02T15:06:23;15.80;99.90
38241;DHT22;24037;49.536;8.500;2024-03-02T15:08:49;15.70;99.90
38241;DHT22;24037;49.536;8.500;2024-03-02T15:11:16;15.60;99.90
38241;DHT22;24037;49.536;8.500;2024-03-02T15:13:42;15.60;99.90
38241;DHT22;24037;49.536;8.500;2024-03-02T15:16:08;15.50;99.90
38241;DHT22;24037;49.536;8.500;2024-03-02T15:18:35;15.40;99.90
38241;DHT22;24037;49.536;8.500;2024-03-02T15:21:01;15.30;99.90
38241;DHT22;24037;49.536;8.500;2024-03-02T15:23:28;15.20;99.90
38241;DHT22;24037;49.536;8.500;2024-03-02T15:25:56;15.10;99.90
38241;DHT22;24037;49.536;8.500;2024-03-02T15:28:22;15.00;99.90
38241;DHT22;24037;49.536;8.500;2024-03-02T15:30:48;14.90;99.90
38241;DHT22;24037;49.536;8.500;2024-03-02T15:33:14;14.90;99.90
38241;DHT22;24037;49.536;8.500;2024-03-02T15:35:43;14.80;99.90
38241;DHT22;24037;49.536;8.500;2024-03-02T15:38:10;14.80;99.90
38241;DHT22;24037;49.536;8.500;2024-03-02T15:40:40;14.70;99.90
38241;DHT22;24037;49.536;8.500;2024-03-02T15:43:06;14.70;99.90
38241;DHT22;24037;49.536;8.500;2024-03-02T15:45:33;14.60;99.90
38241;DHT22;24037;49.536;8.500;2024-03-02T15:48:00;14.60;99.90
38241;DHT22;24037;49.536;8.500;2024-03-02T15:50:27;14.60;99.90
38241;DHT22;24037;49.536;8.500;2024-03-02T15:52:54;14.50;99.90